Time;durP1;ratioP1;P1;durP2;ratioP2;P2;SDS_P1;SDS_P2;PMS_P1;PMS_P2;Temp;Humidity;BMP_temperature;BMP_pressure;BME280_temperature;BME280_humidity;BME280_pressure;Samples;Min_cycle;Max_cycle;Signal;HPM_P1;HPM_P2
2022/10/24 00:00:28;;;;;;;10.07;1.80;;;17.50;1.00;;;;;;7391757;19;20530;-67
2022/10/24 00:02:58;;;;;;;11.45;1.70;;;17.50;1.00;;;;;;7392824;19;20020;-68
2022/10/24 00:05:28;;;;;;;6.75;1.50;;;17.40;1.00;;;;;;7390946;19;20771;-67
2022/10/24 00:08:00;;;;;;;5.57;1.50;;;17.50;1.00;;;;;;7389832;19;20045;-68
2022/10/24 00:10:30;;;;;;;6.22;1.50;;;17.50;1.00;;;;;;7391060;19;20018;-67
2022/10/24 00:13:00;;;;;;;6.72;1.52;;;17.40;1.00;;;;;;7392851;19;20018;-67
2022/10/24 00:15:30;;;;;;;3.83;1.75;;;17.30;1.00;;;;;;7390059;19;20042;-67
2022/10/24 00:17:59;;;;;;;5.90;1.52;;;17.30;1.00;;;;;;7387835;19;20018;-68
2022/10/24 00:20:29;;;;;;;4.50;1.33;;;17.20;1.00;;;;;;7390872;19;20034;-68
2022/10/24 00:23:02;;;;;;;6.93;1.35;;;17.20;1.00;;;;;;7392598;19;20116;-67
2022/10/24 00:25:32;;;;;;;5.38;1.40;;;17.10;1.00;;;;;;7389505;19;20014;-68
2022/10/24 00:28:02;;;;;;;9.38;1.70;;;17.00;1.00;;;;;;7389029;19;20018;-68
2022/10/24 00:30:31;;;;;;;7.22;1.50;;;17.00;1.00;;;;;;7390681;19;20014;-68
2022/10/24 00:33:01;;;;;;;4.13;1.05;;;17.00;1.00;;;;;;7392100;19;20010;-68
2022/10/24 00:35:31;;;;;;;8.77;1.70;;;17.20;1.00;;;;;;7389449;19;20010;-67
2022/10/24 00:38:03;;;;;;;8.23;1.58;;;17.10;1.00;;;;;;7388537;19;20038;-70
2022/10/24 00:40:33;;;;;;;6.47;1.40;;;17.00;1.00;;;;;;7390375;19;20015;-68
2022/10/24 00:43:03;;;;;;;10.52;1.35;;;17.00;1.00;;;;;;7391833;19;20488;-68
2022/10/24 00:45:46;;;;;;;11.27;1.38;;;16.90;1.00;;;;;;7389512;19;20035;-68
2022/10/24 00:48:22;;;;;;;6.32;1.30;;;17.00;1.00;;;;;;7390084;19;20016;-66
2022/10/24 00:50:54;;;;;;;7.80;1.70;;;17.00;1.00;;;;;;7390157;19;20497;-67
2022/10/24 00:53:28;;;;;;;8.63;1.58;;;17.00;1.00;;;;;;7390722;19;20014;-67
2022/10/24 00:56:02;;;;;;;5.27;1.47;;;17.00;1.00;;;;;;7389806;19;20043;-67
2022/10/24 00:58:35;;;;;;;5.35;1.73;;;17.00;1.00;;;;;;7389739;19;20603;-67
2022/10/24 01:01:05;;;;;;;6.70;1.60;;;17.00;1.00;;;;;;7390797;19;20047;-66
2022/10/24 01:03:35;;;;;;;7.03;1.45;;;16.90;1.00;;;;;;7390947;19;20018;-67
2022/10/24 01:06:28;;;;;;;7.80;1.65;;;16.90;1.00;;;;;;7389182;19;20018;-68
2022/10/24 01:09:11;;;;;;;7.90;1.65;;;16.90;1.00;;;;;;7388016;19;20389;-68
2022/10/24 01:11:55;;;;;;;5.50;1.40;;;16.80;1.00;;;;;;7389836;19;20021;-67
2022/10/24 01:14:35;;;;;;;13.50;2.42;;;16.90;1.00;;;;;;7390178;19;20017;-68
2022/10/24 01:17:13;;;;;;;12.00;2.05;;;16.80;1.00;;;;;;7387163;19;20014;-68
2022/10/24 01:20:16;;;;;;;6.05;1.40;;;16.80;1.00;;;;;;7394672;19;20018;-68
2022/10/24 01:22:56;;;;;;;15.30;2.08;;;16.80;1.00;;;;;;7398175;19;20039;-68
2022/10/24 01:25:41;;;;;;;5.45;1.33;;;16.70;1.00;;;;;;7395515;19;20017;-67
2022/10/24 01:28:14;;;;;;;6.55;1.30;;;16.70;1.00;;;;;;7393710;19;20010;-68
2022/10/24 01:30:50;;;;;;;8.07;2.27;;;16.70;1.00;;;;;;7397323;19;20027;-68
2022/10/24 01:33:26;;;;;;;6.10;1.50;;;16.70;1.00;;;;;;7398150;19;20300;-67
2022/10/24 01:35:59;;;;;;;9.27;1.50;;;16.70;1.00;;;;;;7395747;19;20017;-67
2022/10/24 01:38:34;;;;;;;7.20;1.75;;;16.80;1.00;;;;;;7396317;19;20014;-67
2022/10/24 01:41:09;;;;;;;7.35;1.75;;;17.00;1.00;;;;;;7397285;19;20014;-67
2022/10/24 01:43:43;;;;;;;6.57;1.60;;;16.90;1.00;;;;;;7397589;19;20372;-67
2022/10/24 01:46:18;;;;;;;;;;;16.90;1.00;;;;;;7396349;19;20041;-67
2022/10/24 01:48:52;;;;;;;6.05;1.70;;;17.00;1.00;;;;;;7396256;19;19942;-67
2022/10/24 01:51:26;;;;;;;5.50;2.10;;;16.90;1.00;;;;;;7396854;19;20006;-67
2022/10/24 01:53:59;;;;;;;10.57;1.67;;;16.80;1.00;;;;;;7397162;19;20090;-67
2022/10/24 01:56:29;;;;;;;4.15;1.30;;;16.70;1.00;;;;;;7393177;19;20458;-67
2022/10/24 01:59:07;;;;;;;8.10;1.70;;;16.70;1.00;;;;;;7397025;19;20121;-67
2022/10/24 02:01:41;;;;;;;6.60;1.48;;;16.70;1.00;;;;;;7395400;19;20010;-67
2022/10/24 02:04:14;;;;;;;4.50;1.40;;;16.70;1.00;;;;;;7396924;19;20471;-68
2022/10/24 02:06:46;;;;;;;7.65;1.80;;;16.70;1.00;;;;;;7392187;19;20022;-67
2022/10/24 02:09:19;;;;;;;11.73;1.75;;;16.70;1.00;;;;;;7395405;19;20486;-67
2022/10/24 02:11:50;;;;;;;9.27;1.67;;;16.80;1.00;;;;;;7396110;19;20010;-67
2022/10/24 02:14:25;;;;;;;8.27;1.60;;;16.90;1.00;;;;;;7396450;19;20624;-68
2022/10/24 02:16:58;;;;;;;7.68;2.17;;;17.00;1.00;;;;;;7390929;19;20249;-68
2022/10/24 02:19:28;;;;;;;6.82;1.60;;;17.00;1.00;;;;;;7396031;19;20025;-69
2022/10/24 02:22:07;;;;;;;10.18;2.28;;;17.00;1.00;;;;;;7396077;19;20494;-67
2022/10/24 02:24:44;;;;;;;5.45;1.80;;;16.90;1.00;;;;;;7395134;19;20038;-67
2022/10/24 02:27:17;;;;;;;6.95;1.70;;;16.90;1.00;;;;;;7392010;19;20022;-67
2022/10/24 02:29:53;;;;;;;10.43;1.85;;;16.80;1.00;;;;;;7390096;19;20034;-67
2022/10/24 02:32:30;;;;;;;10.20;2.25;;;16.70;1.00;;;;;;7395713;19;20014;-67
2022/10/24 02:35:02;;;;;;;10.27;2.22;;;16.70;1.00;;;;;;7395666;19;20013;-68
2022/10/24 02:37:33;;;;;;;6.93;2.00;;;16.60;1.00;;;;;;7390886;19;20006;-67
2022/10/24 02:40:07;;;;;;;8.77;2.22;;;16.50;1.00;;;;;;7394897;19;20010;-68
2022/10/24 02:42:38;;;;;;;8.60;2.08;;;16.50;1.00;;;;;;7394630;19;20032;-67
2022/10/24 02:45:11;;;;;;;6.05;2.22;;;16.60;1.00;;;;;;7395695;19;20010;-68
2022/10/24 02:47:46;;;;;;;10.55;2.15;;;16.70;1.00;;;;;;7392062;19;20025;-67
2022/10/24 02:50:16;;;;;;;13.45;2.25;;;16.60;1.00;;;;;;7393292;19;20081;-67
2022/10/24 02:52:46;;;;;;;6.90;1.95;;;16.50;1.00;;;;;;7394678;19;20485;-66
2022/10/24 02:55:19;;;;;;;10.45;2.15;;;16.50;1.00;;;;;;7394030;19;20014;-66
2022/10/24 02:57:49;;;;;;;10.15;2.20;;;16.50;1.00;;;;;;7390989;19;20506;-67
2022/10/24 03:00:19;;;;;;;7.63;2.25;;;16.50;1.00;;;;;;7394593;19;20034;-67
2022/10/24 03:02:52;;;;;;;6.47;2.03;;;16.60;1.00;;;;;;7394424;19;20014;-67
2022/10/24 03:05:21;;;;;;;10.27;2.00;;;16.50;1.00;;;;;;7393372;19;20034;-66
2022/10/24 03:07:51;;;;;;;7.90;2.13;;;16.50;1.00;;;;;;7391526;19;20010;-67
2022/10/24 03:10:21;;;;;;;5.57;1.52;;;16.40;1.00;;;;;;7392737;19;20039;-67
2022/10/24 03:12:51;;;;;;;14.60;2.28;;;16.40;1.00;;;;;;7393894;19;20021;-67
2022/10/24 03:15:21;;;;;;;6.53;2.17;;;16.40;1.00;;;;;;7392528;19;20726;-66
2022/10/24 03:17:53;;;;;;;8.25;2.33;;;16.50;1.00;;;;;;7391403;19;20034;-67
2022/10/24 03:20:23;;;;;;;17.15;2.40;;;16.50;1.00;;;;;;7394104;19;20352;-66
2022/10/24 03:22:53;;;;;;;9.15;2.17;;;16.50;1.00;;;;;;7392005;19;20010;-67
2022/10/24 03:25:23;;;;;;;12.15;2.17;;;16.50;1.00;;;;;;7392909;19;20038;-67
2022/10/24 03:27:53;;;;;;;12.00;2.38;;;16.40;1.00;;;;;;7391066;19;20010;-67
2022/10/24 03:30:22;;;;;;;7.50;2.10;;;16.40;1.00;;;;;;7392345;19;20014;-67
2022/10/24 03:32:55;;;;;;;5.50;2.05;;;16.50;1.00;;;;;;7393149;19;20348;-67
2022/10/24 03:35:24;;;;;;;10.65;2.22;;;16.40;1.00;;;;;;7391028;19;20473;-68
2022/10/24 03:37:54;;;;;;;8.82;1.90;;;16.40;1.00;;;;;;7390154;19;20026;-68
2022/10/24 03:40:24;;;;;;;10.85;2.50;;;16.60;1.00;;;;;;7393433;19;20039;-68
2022/10/24 03:42:54;;;;;;;12.23;3.10;;;16.60;1.00;;;;;;7390535;19;20034;-68
2022/10/24 03:45:23;;;;;;;14.60;3.65;;;16.60;1.00;;;;;;7391996;19;20014;-68
2022/10/24 03:47:56;;;;;;;10.25;2.53;;;16.80;1.00;;;;;;7390371;19;20011;-67
2022/10/24 03:50:26;;;;;;;10.98;2.72;;;16.90;1.00;;;;;;7392224;19;20014;-68
2022/10/24 03:52:55;;;;;;;11.50;2.63;;;16.90;1.00;;;;;;7393056;19;20014;-67
2022/10/24 03:55:25;;;;;;;9.63;2.60;;;16.90;1.00;;;;;;7391833;19;20055;-67
2022/10/24 03:57:55;;;;;;;18.58;2.90;;;16.90;1.00;;;;;;7390585;19;20355;-67
2022/10/24 04:00:27;;;;;;;7.65;2.50;;;16.80;1.00;;;;;;7392091;19;20046;-67
2022/10/24 04:03:00;;;;;;;13.77;2.88;;;16.70;1.00;;;;;;7392554;19;20482;-68
2022/10/24 04:05:29;;;;;;;12.77;3.00;;;16.80;1.00;;;;;;7391456;19;20014;-67
2022/10/24 04:07:59;;;;;;;11.30;2.42;;;16.80;1.00;;;;;;7389368;19;20748;-67
2022/10/24 04:10:29;;;;;;;10.38;2.85;;;16.80;1.00;;;;;;7390690;19;20725;-67
2022/10/24 04:12:59;;;;;;;11.05;2.47;;;16.70;1.00;;;;;;7392466;19;20018;-67
2022/10/24 04:15:28;;;;;;;9.82;2.63;;;16.70;1.00;;;;;;7390348;19;20010;-67
2022/10/24 04:18:01;;;;;;;12.02;2.60;;;16.80;1.00;;;;;;7389958;19;20002;-66
2022/10/24 04:20:30;;;;;;;12.20;2.78;;;16.80;1.00;;;;;;7391021;19;20009;-67
2022/10/24 04:23:00;;;;;;;12.10;2.33;;;16.70;1.00;;;;;;7392129;19;20018;-67
2022/10/24 04:25:33;;;;;;;12.52;2.63;;;16.70;1.00;;;;;;7389761;19;20034;-66
2022/10/24 04:28:03;;;;;;;8.43;3.05;;;16.60;1.00;;;;;;7389305;19;20007;-66
2022/10/24 04:30:33;;;;;;;11.65;2.88;;;16.60;1.00;;;;;;7390686;19;20039;-66
2022/10/24 04:33:06;;;;;;;8.82;2.25;;;16.50;1.00;;;;;;7391750;19;20478;-67
2022/10/24 04:35:35;;;;;;;7.45;2.42;;;16.50;1.00;;;;;;7389952;19;20015;-67
2022/10/24 04:38:05;;;;;;;10.65;2.90;;;16.50;1.00;;;;;;7387866;19;20032;-67
2022/10/24 04:40:35;;;;;;;13.73;3.03;;;16.50;1.00;;;;;;7390397;19;20029;-67
2022/10/24 04:43:05;;;;;;;9.43;2.60;;;16.50;1.00;;;;;;7391443;19;20002;-67
2022/10/24 04:45:34;;;;;;;12.40;2.85;;;16.40;1.00;;;;;;7389478;19;20471;-67
2022/10/24 04:48:08;;;;;;;9.20;2.60;;;16.30;1.00;;;;;;7387939;19;20573;-67
2022/10/24 04:50:38;;;;;;;12.55;3.53;;;16.30;1.40;;;;;;7389330;19;20015;-67
2022/10/24 04:53:08;;;;;;;14.45;3.97;;;16.30;2.30;;;;;;7391339;19;20057;-67
2022/10/24 04:55:38;;;;;;;10.45;3.38;;;16.30;2.00;;;;;;7397374;19;20015;-68
2022/10/24 04:58:07;;;;;;;13.55;3.13;;;16.30;2.80;;;;;;7395273;19;20010;-67
2022/10/24 05:00:37;;;;;;;13.00;2.90;;;16.20;3.90;;;;;;7398323;19;20006;-67
2022/10/24 05:03:10;;;;;;;13.00;3.97;;;16.20;3.70;;;;;;7399179;19;20011;-67
2022/10/24 05:05:40;;;;;;;20.27;5.25;;;16.30;3.60;;;;;;7397156;19;20492;-67
2022/10/24 05:08:10;;;;;;;10.57;3.30;;;16.30;3.50;;;;;;7394898;19;20022;-67
2022/10/24 05:10:40;;;;;;;10.93;2.88;;;16.40;3.50;;;;;;7396179;19;20365;-68
2022/10/24 05:13:10;;;;;;;8.63;3.03;;;16.40;3.10;;;;;;7397889;19;20007;-66
2022/10/24 05:15:40;;;;;;;10.13;2.75;;;16.40;2.50;;;;;;7396125;19;20015;-67
2022/10/24 05:18:13;;;;;;;10.10;2.70;;;16.50;1.60;;;;;;7394394;19;20042;-67
2022/10/24 05:20:43;;;;;;;8.23;2.60;;;16.60;1.00;;;;;;7395520;19;20011;-68
2022/10/24 05:23:12;;;;;;;11.27;2.60;;;16.70;1.00;;;;;;7398462;19;20725;-67
2022/10/24 05:25:42;;;;;;;10.30;2.88;;;16.80;1.00;;;;;;7395829;19;20018;-67
2022/10/24 05:28:12;;;;;;;12.80;2.70;;;16.90;1.00;;;;;;7393527;19;20006;-67
2022/10/24 05:30:44;;;;;;;12.70;3.00;;;17.00;1.00;;;;;;7395933;19;20047;-67
2022/10/24 05:33:16;;;;;;;10.55;2.63;;;17.00;1.00;;;;;;7397149;19;20501;-67
2022/10/24 05:35:46;;;;;;;10.43;2.17;;;17.10;1.00;;;;;;7394317;19;20018;-68
2022/10/24 05:38:15;;;;;;;11.55;2.70;;;17.20;1.00;;;;;;7396002;19;20014;-67
2022/10/24 05:40:47;;;;;;;14.75;3.17;;;17.20;1.00;;;;;;7395648;19;20758;-68
2022/10/24 05:43:17;;;;;;;9.57;2.90;;;17.00;1.30;;;;;;7397097;19;20026;-68
2022/10/24 05:45:50;;;;;;;10.38;3.05;;;16.90;2.30;;;;;;7394775;19;20011;-66
2022/10/24 05:48:42;;;;;;;11.27;3.10;;;16.80;2.60;;;;;;7395404;19;20043;-66
2022/10/24 05:51:12;;;;;;;23.48;3.17;;;16.70;4.90;;;;;;7396148;19;20035;-68
2022/10/24 05:53:41;;;;;;;8.77;2.58;;;16.60;8.00;;;;;;7396501;19;20103;-68
2022/10/24 05:56:11;;;;;;;7.10;2.05;;;16.40;12.20;;;;;;7394887;19;20017;-67
2022/10/24 05:58:41;;;;;;;11.00;2.92;;;16.30;12.60;;;;;;7395613;19;20006;-67
2022/10/24 06:01:11;;;;;;;7.82;2.35;;;16.30;13.40;;;;;;7395503;19;20007;-66
2022/10/24 06:03:43;;;;;;;6.90;2.33;;;16.30;13.60;;;;;;7395888;19;20457;-67
2022/10/24 06:06:13;;;;;;;9.25;2.58;;;16.30;14.20;;;;;;7393549;19;20014;-68
2022/10/24 06:08:43;;;;;;;10.18;2.90;;;16.30;14.90;;;;;;7394874;19;20011;-66
2022/10/24 06:11:14;;;;;;;6.78;2.53;;;16.30;14.80;;;;;;7394302;19;20002;-66
2022/10/24 06:13:44;;;;;;;12.00;2.33;;;16.30;15.20;;;;;;7394694;19;20022;-67
2022/10/24 06:16:14;;;;;;;11.98;3.45;;;16.30;14.70;;;;;;7394477;19;20021;-68
2022/10/24 06:18:46;;;;;;;12.57;3.03;;;16.10;17.50;;;;;;7393901;19;20409;-67
2022/10/24 06:21:16;;;;;;;9.00;2.88;;;16.00;19.50;;;;;;7395366;19;20006;-66
2022/10/24 06:23:45;;;;;;;9.13;3.15;;;15.90;22.10;;;;;;7394999;19;20362;-67
2022/10/24 06:26:15;;;;;;;10.73;3.05;;;15.80;24.30;;;;;;7392675;19;20046;-67
2022/10/24 06:28:50;;;;;;;8.05;2.80;;;15.80;28.40;;;;;;7394255;19;20018;-67
2022/10/24 06:31:20;;;;;;;12.80;3.10;;;15.70;31.60;;;;;;7394121;19;20467;-67
2022/10/24 06:33:52;;;;;;;9.77;3.15;;;15.60;33.40;;;;;;7395402;19;20018;-65
2022/10/24 06:36:22;;;;;;;9.82;3.15;;;15.70;31.20;;;;;;7393482;19;20031;-67
2022/10/24 06:38:58;;;;;;;11.75;2.92;;;15.70;31.10;;;;;;7394646;19;20022;-66
2022/10/24 06:41:27;;;;;;;11.55;2.92;;;15.80;29.50;;;;;;7392929;19;20034;-67
2022/10/24 06:43:58;;;;;;;14.15;2.95;;;15.80;27.80;;;;;;7394533;19;20011;-66
2022/10/24 06:46:27;;;;;;;7.82;2.50;;;15.90;27.70;;;;;;7390408;19;20070;-66
2022/10/24 06:49:00;;;;;;;14.65;2.90;;;15.90;26.00;;;;;;7390676;19;20359;-68
2022/10/24 06:51:29;;;;;;;10.77;2.72;;;15.90;25.20;;;;;;7390518;19;20037;-68
2022/10/24 06:53:59;;;;;;;10.52;3.47;;;15.90;25.00;;;;;;7391851;19;20446;-66
2022/10/24 06:56:29;;;;;;;7.22;2.42;;;15.90;25.60;;;;;;7389818;19;20014;-67
2022/10/24 06:58:59;;;;;;;11.35;2.70;;;15.90;25.50;;;;;;7392715;19;20018;-66
2022/10/24 07:01:30;;;;;;;10.55;3.03;;;15.90;25.00;;;;;;7392156;19;20031;-67
2022/10/24 07:04:04;;;;;;;10.00;2.95;;;15.90;25.40;;;;;;7392551;19;20014;-66
2022/10/24 07:06:34;;;;;;;8.73;3.17;;;15.90;25.00;;;;;;7389166;19;20022;-67
2022/10/24 07:09:05;;;;;;;9.68;3.28;;;15.90;24.70;;;;;;7390336;19;20025;-67
2022/10/24 07:11:41;;;;;;;14.43;2.88;;;15.90;25.10;;;;;;7391496;19;20027;-66
2022/10/24 07:14:11;;;;;;;6.75;2.80;;;15.90;26.10;;;;;;7391973;19;20014;-67
2022/10/24 07:16:41;;;;;;;8.20;3.30;;;15.80;28.60;;;;;;7386330;19;20025;-66
2022/10/24 07:19:14;;;;;;;8.38;2.60;;;15.70;30.00;;;;;;7393250;19;20007;-66
2022/10/24 07:21:44;;;;;;;9.68;2.97;;;15.70;32.80;;;;;;7373578;19;20042;-67
2022/10/24 07:24:14;;;;;;;7.38;2.70;;;15.60;36.10;;;;;;7383719;19;20450;-67
2022/10/24 07:26:44;;;;;;;9.15;2.65;;;15.50;35.60;;;;;;7382295;19;20557;-67
2022/10/24 07:29:14;;;;;;;7.57;2.80;;;15.60;35.40;;;;;;7382837;19;20018;-67
2022/10/24 07:31:44;;;;;;;8.55;3.25;;;15.60;36.40;;;;;;7386429;19;20010;-68
2022/10/24 07:34:16;;;;;;;8.82;2.72;;;15.60;35.30;;;;;;7385174;19;20107;-67
2022/10/24 07:36:46;;;;;;;7.07;3.13;;;15.60;35.70;;;;;;7341515;19;20474;-67
2022/10/24 07:39:16;;;;;;;7.10;2.90;;;15.60;36.10;;;;;;7357409;19;20644;-67
2022/10/24 07:41:46;;;;;;;10.82;3.20;;;15.60;36.90;;;;;;7361893;19;20031;-67
2022/10/24 07:44:16;;;;;;;14.23;4.70;;;15.60;37.40;;;;;;7381348;19;20006;-66
2022/10/24 07:46:46;;;;;;;13.45;4.90;;;15.70;38.70;;;;;;7357965;19;20010;-67
2022/10/24 07:49:18;;;;;;;12.32;3.33;;;15.60;39.30;;;;;;7355463;19;20626;-66
2022/10/24 07:51:48;;;;;;;13.10;3.85;;;15.60;38.00;;;;;;7359540;19;20006;-66
2022/10/24 07:54:17;;;;;;;13.45;3.97;;;15.60;38.60;;;;;;7360449;19;20006;-66
2022/10/24 07:56:47;;;;;;;11.13;3.50;;;15.60;38.30;;;;;;7357705;19;20042;-67
2022/10/24 07:59:17;;;;;;;14.27;3.60;;;15.70;37.80;;;;;;7373402;19;20361;-66
2022/10/24 08:02:07;;;;;;;11.38;3.45;;;15.70;37.80;;;;;;7360115;19;20141;-67
2022/10/24 08:04:39;;;;;;;13.32;3.80;;;15.70;37.80;;;;;;7359364;19;20010;-67
2022/10/24 08:07:11;;;;;;;8.90;2.83;;;15.80;38.60;;;;;;7357335;19;20045;-68
2022/10/24 08:09:44;;;;;;;10.00;3.13;;;15.80;38.60;;;;;;7352377;19;20018;-67
2022/10/24 08:12:15;;;;;;;11.65;3.50;;;15.80;39.20;;;;;;7358990;19;20003;-66
2022/10/24 08:14:46;;;;;;;12.00;3.63;;;15.80;36.30;;;;;;7358395;19;20018;-67
2022/10/24 08:17:20;;;;;;;8.95;3.72;;;15.90;38.00;;;;;;7381699;19;20019;-67
2022/10/24 08:19:53;;;;;;;12.10;3.47;;;15.90;38.10;;;;;;7355836;19;20118;-66
2022/10/24 08:22:22;;;;;;;8.45;3.50;;;15.90;38.00;;;;;;7361854;19;20010;-67
2022/10/24 08:24:52;;;;;;;14.13;3.63;;;16.00;38.10;;;;;;7359297;19;20498;-67
2022/10/24 08:27:22;;;;;;;15.15;3.55;;;16.00;36.20;;;;;;7355695;19;20006;-67
2022/10/24 08:29:52;;;;;;;9.38;3.00;;;16.00;37.00;;;;;;7364083;19;20025;-67
2022/10/24 08:32:21;;;;;;;7.68;2.88;;;16.00;35.40;;;;;;7389197;19;20018;-67
2022/10/24 08:34:54;;;;;;;10.43;3.10;;;16.00;33.80;;;;;;7366427;19;20011;-67
2022/10/24 08:37:24;;;;;;;7.25;2.63;;;16.10;33.10;;;;;;7359517;19;20380;-67
2022/10/24 08:39:54;;;;;;;8.45;3.03;;;16.10;31.80;;;;;;7389034;19;20010;-67
2022/10/24 08:42:25;;;;;;;10.45;3.00;;;16.10;31.70;;;;;;7391561;19;20014;-66
2022/10/24 08:44:55;;;;;;;13.25;3.50;;;16.20;33.40;;;;;;7389451;19;20020;-67
2022/10/24 08:47:33;;;;;;;11.27;3.40;;;16.20;32.50;;;;;;7383541;19;20047;-66
2022/10/24 08:50:18;;;;;;;12.98;3.70;;;16.20;30.80;;;;;;7391837;19;20099;-66
2022/10/24 08:52:52;;;;;;;7.82;2.60;;;16.30;30.90;;;;;;7391069;19;20015;-67
2022/10/24 08:55:24;;;;;;;9.77;3.63;;;16.40;29.50;;;;;;7389276;19;20384;-67
2022/10/24 08:58:19;;;;;;;10.80;3.35;;;16.40;28.60;;;;;;7383083;19;20485;-67
2022/10/24 09:00:52;;;;;;;11.60;2.42;;;16.40;29.10;;;;;;7388568;19;20722;-67
2022/10/24 09:03:30;;;;;;;13.85;2.92;;;16.40;28.10;;;;;;7392584;19;20010;-66
2022/10/24 09:06:24;;;;;;;8.75;2.38;;;16.40;27.80;;;;;;7387761;19;20059;-66
2022/10/24 09:08:57;;;;;;;10.68;2.92;;;16.30;27.80;;;;;;7382198;19;20014;-66
2022/10/24 09:11:37;;;;;;;8.90;2.75;;;16.30;27.10;;;;;;7390166;19;20010;-67
2022/10/24 09:14:13;;;;;;;14.05;3.03;;;16.30;26.40;;;;;;7387042;19;20026;-67
2022/10/24 09:16:46;;;;;;;6.03;2.35;;;16.30;27.10;;;;;;7385077;19;20025;-67
2022/10/24 09:19:19;;;;;;;5.85;2.78;;;16.30;27.40;;;;;;7381378;19;20022;-68
2022/10/24 09:21:53;;;;;;;8.38;2.17;;;16.30;27.70;;;;;;7387636;19;20057;-67
2022/10/24 09:24:33;;;;;;;11.52;2.70;;;16.30;27.40;;;;;;7389723;19;20019;-68
2022/10/24 09:27:05;;;;;;;5.45;2.38;;;16.30;27.10;;;;;;7385974;19;21082;-67
2022/10/24 09:29:35;;;;;;;5.30;2.28;;;16.30;27.50;;;;;;7379724;19;20026;-67
2022/10/24 09:32:06;;;;;;;9.90;2.65;;;16.30;29.00;;;;;;7386890;19;20019;-66
2022/10/24 09:34:35;;;;;;;10.23;4.38;;;16.30;29.30;;;;;;7383983;19;20019;-67
2022/10/24 09:37:08;;;;;;;9.07;2.38;;;16.20;28.60;;;;;;7386199;19;20026;-67
2022/10/24 09:39:37;;;;;;;6.70;2.20;;;16.20;28.10;;;;;;7380404;19;20022;-67
2022/10/24 09:42:07;;;;;;;9.18;2.20;;;16.20;29.40;;;;;;7387934;19;20478;-67
2022/10/24 09:44:42;;;;;;;7.13;2.45;;;16.20;28.60;;;;;;7385470;19;20014;-67
2022/10/24 09:47:28;;;;;;;7.47;2.30;;;16.20;27.00;;;;;;7385701;19;20018;-68
2022/10/24 09:49:59;;;;;;;6.60;2.45;;;16.30;25.80;;;;;;7388573;19;20025;-66
2022/10/24 09:52:31;;;;;;;9.70;2.72;;;16.30;24.90;;;;;;7389469;19;20052;-68
2022/10/24 09:55:18;;;;;;;10.68;2.47;;;16.30;24.60;;;;;;7385030;19;20010;-67
2022/10/24 09:57:48;;;;;;;8.90;2.72;;;16.30;24.50;;;;;;7378491;19;20088;-68
2022/10/24 10:00:27;;;;;;;8.27;2.50;;;16.30;25.90;;;;;;7390770;19;20007;-68
2022/10/24 10:03:03;;;;;;;10.25;2.30;;;16.30;26.40;;;;;;7385678;19;20029;-67
2022/10/24 10:05:45;;;;;;;9.63;2.85;;;16.30;26.30;;;;;;7385771;19;20046;-68
2022/10/24 10:08:23;;;;;;;10.10;2.50;;;16.30;25.00;;;;;;7376958;19;20691;-68
2022/10/24 10:11:03;;;;;;;17.23;3.47;;;16.30;26.40;;;;;;7384732;19;20018;-67
2022/10/24 10:13:37;;;;;;;10.63;3.10;;;16.30;26.40;;;;;;7383682;19;20093;-68
2022/10/24 10:16:08;;;;;;;17.55;3.95;;;16.30;27.10;;;;;;7385118;19;20018;-67
2022/10/24 10:18:47;;;;;;;12.65;3.22;;;16.30;26.90;;;;;;7376605;19;20018;-67
2022/10/24 10:21:19;;;;;;;9.25;2.47;;;16.30;26.70;;;;;;7386427;19;20017;-67
2022/10/24 10:23:53;;;;;;;6.95;2.72;;;16.40;26.50;;;;;;7384982;19;20352;-67
2022/10/24 10:26:26;;;;;;;9.68;3.03;;;16.50;26.60;;;;;;7383196;19;20023;-68
2022/10/24 10:29:02;;;;;;;7.80;2.72;;;16.50;26.50;;;;;;7378152;19;20014;-67
2022/10/24 10:31:42;;;;;;;10.27;3.53;;;16.50;26.80;;;;;;7384284;19;20347;-67
2022/10/24 10:34:24;;;;;;;8.10;2.95;;;16.60;26.60;;;;;;7382654;19;20044;-68
2022/10/24 10:37:24;;;;;;;10.23;2.78;;;16.60;26.60;;;;;;7385568;19;20047;-67
2022/10/24 10:40:15;;;;;;;6.50;2.53;;;16.60;27.10;;;;;;7383028;19;20014;-67
2022/10/24 10:42:55;;;;;;;6.13;2.47;;;16.60;25.50;;;;;;7384982;19;20018;-68
2022/10/24 10:45:36;;;;;;;10.13;2.60;;;16.70;23.60;;;;;;7383897;19;20018;-67
2022/10/24 10:48:19;;;;;;;6.15;1.90;;;16.80;20.00;;;;;;7374924;19;20015;-66
2022/10/24 10:50:54;;;;;;;8.27;2.08;;;16.90;17.60;;;;;;7382139;19;20029;-66
2022/10/24 10:53:33;;;;;;;5.78;2.08;;;17.00;15.00;;;;;;7382124;19;20018;-67
2022/10/24 10:56:26;;;;;;;5.63;1.58;;;17.00;12.60;;;;;;7383201;19;20019;-67
2022/10/24 10:59:06;;;;;;;5.93;2.00;;;17.00;12.10;;;;;;7377283;19;20018;-68
2022/10/24 11:01:47;;;;;;;8.05;2.35;;;17.10;12.20;;;;;;7385392;19;20014;-68
2022/10/24 11:04:25;;;;;;;2.22;1.52;;;17.10;9.80;;;;;;7383982;19;20485;-68
2022/10/24 11:07:03;;;;;;;7.60;1.73;;;17.10;8.50;;;;;;7383223;19;20022;-66
2022/10/24 11:09:38;;;;;;;7.63;2.53;;;17.10;8.30;;;;;;7377134;19;20026;-69
2022/10/24 11:12:18;;;;;;;4.45;1.75;;;17.10;8.10;;;;;;7385240;19;20014;-68
2022/10/24 11:14:51;;;;;;;5.00;2.05;;;17.10;8.50;;;;;;7383853;19;20382;-66
2022/10/24 11:17:25;;;;;;;5.18;2.10;;;17.10;7.40;;;;;;7380922;19;20017;-67
2022/10/24 11:20:04;;;;;;;5.55;1.40;;;17.00;7.70;;;;;;7380125;19;20732;-66
2022/10/24 11:22:42;;;;;;;5.32;1.50;;;17.10;7.40;;;;;;7387942;19;20010;-67
2022/10/24 11:25:24;;;;;;;7.95;2.00;;;17.10;6.50;;;;;;7382481;19;20006;-67
2022/10/24 11:28:05;;;;;;;6.60;2.10;;;17.10;6.00;;;;;;7373970;19;20017;-68
2022/10/24 11:30:45;;;;;;;7.75;2.17;;;17.20;6.80;;;;;;7387691;19;20043;-69
2022/10/24 11:33:20;;;;;;;6.63;2.20;;;17.20;6.60;;;;;;7384617;19;20039;-68
2022/10/24 11:36:02;;;;;;;7.30;1.85;;;17.30;6.00;;;;;;7380978;19;20045;-67
2022/10/24 11:38:35;;;;;;;6.50;1.45;;;17.20;4.70;;;;;;7376475;19;20323;-67
2022/10/24 11:41:19;;;;;;;3.50;1.20;;;17.20;5.20;;;;;;7385190;19;20089;-68
2022/10/24 11:43:55;;;;;;;8.40;2.35;;;17.30;4.40;;;;;;7384996;19;20006;-68
2022/10/24 11:46:34;;;;;;;5.10;1.13;;;17.30;5.30;;;;;;7382238;19;20022;-67
2022/10/24 11:49:20;;;;;;;3.28;1.42;;;17.30;5.30;;;;;;7374392;19;20018;-67
2022/10/24 11:51:57;;;;;;;4.63;1.90;;;17.30;4.60;;;;;;7384694;19;20018;-68
2022/10/24 11:54:32;;;;;;;2.35;1.13;;;17.30;4.70;;;;;;7381411;19;20015;-68
2022/10/24 11:57:06;;;;;;;4.93;1.50;;;17.30;4.40;;;;;;7383133;19;20034;-68
2022/10/24 11:59:41;;;;;;;6.90;3.15;;;17.40;5.30;;;;;;7375157;19;20021;-69
2022/10/24 12:02:39;;;;;;;8.23;3.70;;;17.40;4.70;;;;;;7384242;19;20397;-68
2022/10/24 12:05:27;;;;;;;6.28;1.67;;;17.40;4.10;;;;;;7382626;19;20021;-68
2022/10/24 12:08:20;;;;;;;3.00;1.40;;;17.40;4.30;;;;;;7373666;19;20019;-68
2022/10/24 12:11:27;;;;;;;4.40;2.08;;;17.40;4.40;;;;;;7385103;19;20012;-67
2022/10/24 12:14:21;;;;;;;5.35;1.55;;;17.40;4.00;;;;;;7382649;19;20006;-67
2022/10/24 12:17:12;;;;;;;4.18;1.60;;;17.40;4.70;;;;;;7381545;19;20458;-67
2022/10/24 12:19:43;;;;;;;7.07;1.80;;;17.40;4.40;;;;;;7376662;19;20006;-68
2022/10/24 12:22:20;;;;;;;6.35;1.88;;;17.40;5.30;;;;;;7382951;19;20020;-68
2022/10/24 12:24:51;;;;;;;6.45;1.63;;;17.40;5.40;;;;;;7383263;19;20042;-67
2022/10/24 12:27:29;;;;;;;7.38;1.65;;;17.30;5.20;;;;;;7378317;19;20010;-70
2022/10/24 12:30:05;;;;;;;5.15;2.08;;;17.30;5.30;;;;;;7378670;19;20021;-67
2022/10/24 12:32:44;;;;;;;4.43;1.75;;;17.30;4.90;;;;;;7382031;19;20014;-68
2022/10/24 12:35:45;;;;;;;5.15;1.55;;;17.40;4.50;;;;;;7379285;19;20350;-68
2022/10/24 12:38:41;;;;;;;5.93;1.33;;;17.40;4.60;;;;;;7373443;19;20569;-68
2022/10/24 12:41:41;;;;;;;4.50;1.85;;;17.40;4.60;;;;;;7381547;19;20026;-67
2022/10/24 12:44:40;;;;;;;7.65;1.98;;;17.50;4.40;;;;;;7382835;19;20026;-67
2022/10/24 12:47:30;;;;;;;4.68;1.48;;;17.40;3.50;;;;;;7379091;19;20118;-68
2022/10/24 12:50:20;;;;;;;4.03;1.30;;;17.50;3.10;;;;;;7380092;19;20574;-67
2022/10/24 12:53:18;;;;;;;4.00;1.60;;;17.60;4.80;;;;;;7381635;19;20442;-67
2022/10/24 12:56:17;;;;;;;2.70;1.20;;;17.50;2.70;;;;;;7378738;19;20011;-68
2022/10/24 12:59:20;;;;;;;7.60;1.58;;;17.60;3.10;;;;;;7375377;19;20018;-67
2022/10/24 13:01:51;;;;;;;2.88;1.10;;;17.60;3.40;;;;;;7383046;19;20011;-67
2022/10/24 13:04:49;;;;;;;3.78;1.02;;;17.80;3.10;;;;;;7377753;19;20664;-67
2022/10/24 13:07:43;;;;;;;3.65;1.33;;;17.90;2.40;;;;;;7377979;19;20018;-67
2022/10/24 13:10:58;;;;;;;2.67;1.48;;;17.90;1.90;;;;;;7381031;19;20026;-67
2022/10/24 13:13:42;;;;;;;2.22;1.48;;;18.00;1.60;;;;;;7379491;19;20014;-67
2022/10/24 13:16:25;;;;;;;4.57;1.50;;;17.80;1.00;;;;;;7383113;19;20382;-67
2022/10/24 13:19:10;;;;;;;6.93;1.70;;;17.90;1.00;;;;;;7381247;19;20006;-67
2022/10/24 13:21:48;;;;;;;3.58;1.95;;;17.90;1.60;;;;;;7391380;19;20022;-67
2022/10/24 13:24:35;;;;;;;4.78;1.70;;;17.90;1.10;;;;;;7386976;19;20056;-66
2022/10/24 13:27:33;;;;;;;5.40;1.85;;;18.00;1.00;;;;;;7388057;19;20074;-67
2022/10/24 13:30:19;;;;;;;5.90;1.90;;;17.90;1.00;;;;;;7384124;19;20018;-68